sensor_id;sensor_type;location;lat;lon;timestamp;P1;durP1;ratioP1;P2;durP2;ratioP2
67904;SDS011;54709;43.614;1.576;2022-11-21T00:00:11;9.73;;;3.90;;
67904;SDS011;54709;43.614;1.576;2022-11-21T00:02:36;14.85;;;3.92;;
67904;SDS011;54709;43.614;1.576;2022-11-21T00:05:02;13.38;;;3.40;;
67904;SDS011;54709;43.614;1.576;2022-11-21T00:07:27;10.15;;;3.47;;
67904;SDS011;54709;43.614;1.576;2022-11-21T00:09:53;11.20;;;3.40;;
67904;SDS011;54709;43.614;1.576;2022-11-21T00:12:18;12.55;;;3.85;;
67904;SDS011;54709;43.614;1.576;2022-11-21T00:14:43;12.77;;;3.17;;
67904;SDS011;54709;43.614;1.576;2022-11-21T00:17:09;10.68;;;3.47;;
67904;SDS011;54709;43.614;1.576;2022-11-21T00:19:34;11.18;;;2.97;;
67904;SDS011;54709;43.614;1.576;2022-11-21T00:21:59;11.98;;;3.17;;
67904;SDS011;54709;43.614;1.576;2022-11-21T00:24:25;13.55;;;3.28;;
67904;SDS011;54709;43.614;1.576;2022-11-21T00:26:50;13.60;;;2.90;;
67904;SDS011;54709;43.614;1.576;2022-11-21T00:29:15;7.05;;;2.95;;
67904;SDS011;54709;43.614;1.576;2022-11-21T00:31:41;12.13;;;2.85;;
67904;SDS011;54709;43.614;1.576;2022-11-21T00:34:07;10.77;;;2.63;;
67904;SDS011;54709;43.614;1.576;2022-11-21T00:36:33;11.60;;;2.92;;
67904;SDS011;54709;43.614;1.576;2022-11-21T00:38:59;9.32;;;2.78;;
67904;SDS011;54709;43.614;1.576;2022-11-21T00:41:24;13.00;;;3.35;;
67904;SDS011;54709;43.614;1.576;2022-11-21T00:43:49;10.93;;;2.50;;
67904;SDS011;54709;43.614;1.576;2022-11-21T00:46:15;11.77;;;3.25;;
67904;SDS011;54709;43.614;1.576;2022-11-21T00:48:40;13.57;;;3.22;;
67904;SDS011;54709;43.614;1.576;2022-11-21T00:51:06;9.43;;;3.17;;
67904;SDS011;54709;43.614;1.576;2022-11-21T00:53:32;11.00;;;3.20;;
67904;SDS011;54709;43.614;1.576;2022-11-21T00:55:58;8.13;;;3.42;;
67904;SDS011;54709;43.614;1.576;2022-11-21T00:58:23;9.60;;;3.53;;
67904;SDS011;54709;43.614;1.576;2022-11-21T01:00:49;12.48;;;5.35;;
67904;SDS011;54709;43.614;1.576;2022-11-21T01:03:14;10.93;;;4.72;;
67904;SDS011;54709;43.614;1.576;2022-11-21T01:05:40;8.85;;;4.85;;
67904;SDS011;54709;43.614;1.576;2022-11-21T01:08:05;11.07;;;4.00;;
67904;SDS011;54709;43.614;1.576;2022-11-21T01:10:31;8.75;;;3.45;;
67904;SDS011;54709;43.614;1.576;2022-11-21T01:12:58;9.68;;;2.70;;
67904;SDS011;54709;43.614;1.576;2022-11-21T01:15:23;7.72;;;3.00;;
67904;SDS011;54709;43.614;1.576;2022-11-21T01:17:49;11.55;;;3.10;;
67904;SDS011;54709;43.614;1.576;2022-11-21T01:20:14;14.65;;;3.47;;
67904;SDS011;54709;43.614;1.576;2022-11-21T01:22:39;9.77;;;3.00;;
67904;SDS011;54709;43.614;1.576;2022-11-21T01:25:05;8.55;;;2.92;;
67904;SDS011;54709;43.614;1.576;2022-11-21T01:27:30;10.27;;;3.20;;
67904;SDS011;54709;43.614;1.576;2022-11-21T01:29:56;13.68;;;3.63;;
67904;SDS011;54709;43.614;1.576;2022-11-21T01:32:21;14.95;;;3.08;;
67904;SDS011;54709;43.614;1.576;2022-11-21T01:34:47;9.55;;;3.15;;
67904;SDS011;54709;43.614;1.576;2022-11-21T01:37:12;9.82;;;2.90;;
67904;SDS011;54709;43.614;1.576;2022-11-21T01:39:37;7.25;;;2.72;;
67904;SDS011;54709;43.614;1.576;2022-11-21T01:42:03;9.90;;;2.92;;
67904;SDS011;54709;43.614;1.576;2022-11-21T01:47:50;11.18;;;4.13;;
67904;SDS011;54709;43.614;1.576;2022-11-21T01:50:15;13.35;;;3.58;;
67904;SDS011;54709;43.614;1.576;2022-11-21T01:52:40;15.80;;;4.63;;
67904;SDS011;54709;43.614;1.576;2022-11-21T01:55:06;11.63;;;3.42;;
67904;SDS011;54709;43.614;1.576;2022-11-21T01:57:36;10.60;;;2.80;;
67904;SDS011;54709;43.614;1.576;2022-11-21T02:00:07;12.63;;;3.22;;
67904;SDS011;54709;43.614;1.576;2022-11-21T02:02:36;9.50;;;2.88;;
67904;SDS011;54709;43.614;1.576;2022-11-21T02:05:05;9.98;;;2.60;;
67904;SDS011;54709;43.614;1.576;2022-11-21T02:07:34;12.95;;;2.80;;
67904;SDS011;54709;43.614;1.576;2022-11-21T02:10:00;11.70;;;2.97;;
67904;SDS011;54709;43.614;1.576;2022-11-21T02:12:43;10.15;;;2.53;;
67904;SDS011;54709;43.614;1.576;2022-11-21T02:15:11;10.43;;;3.05;;
67904;SDS011;54709;43.614;1.576;2022-11-21T02:17:37;12.40;;;3.30;;
67904;SDS011;54709;43.614;1.576;2022-11-21T02:20:06;8.05;;;2.88;;
67904;SDS011;54709;43.614;1.576;2022-11-21T02:22:39;12.60;;;3.05;;
67904;SDS011;54709;43.614;1.576;2022-11-21T02:25:31;7.80;;;2.70;;
67904;SDS011;54709;43.614;1.576;2022-11-21T02:28:00;12.82;;;3.05;;
67904;SDS011;54709;43.614;1.576;2022-11-21T02:30:26;10.18;;;3.88;;
67904;SDS011;54709;43.614;1.576;2022-11-21T02:32:53;14.32;;;3.38;;
67904;SDS011;54709;43.614;1.576;2022-11-21T02:35:18;11.50;;;3.17;;
67904;SDS011;54709;43.614;1.576;2022-11-21T02:37:44;9.25;;;2.67;;
67904;SDS011;54709;43.614;1.576;2022-11-21T02:40:13;11.65;;;3.17;;
67904;SDS011;54709;43.614;1.576;2022-11-21T02:45:34;11.23;;;2.40;;
67904;SDS011;54709;43.614;1.576;2022-11-21T02:48:03;9.40;;;2.17;;
67904;SDS011;54709;43.614;1.576;2022-11-21T02:50:30;10.98;;;2.42;;
67904;SDS011;54709;43.614;1.576;2022-11-21T02:52:59;7.10;;;2.63;;
67904;SDS011;54709;43.614;1.576;2022-11-21T02:55:25;9.23;;;2.83;;
67904;SDS011;54709;43.614;1.576;2022-11-21T02:57:51;9.60;;;3.00;;
67904;SDS011;54709;43.614;1.576;2022-11-21T03:00:17;9.07;;;2.70;;
67904;SDS011;54709;43.614;1.576;2022-11-21T03:02:43;10.10;;;2.22;;
67904;SDS011;54709;43.614;1.576;2022-11-21T03:05:09;11.15;;;2.40;;
67904;SDS011;54709;43.614;1.576;2022-11-21T03:07:36;10.38;;;2.45;;
67904;SDS011;54709;43.614;1.576;2022-11-21T03:10:02;8.32;;;2.35;;
67904;SDS011;54709;43.614;1.576;2022-11-21T03:12:27;9.90;;;2.60;;
67904;SDS011;54709;43.614;1.576;2022-11-21T03:14:53;7.97;;;2.53;;
67904;SDS011;54709;43.614;1.576;2022-11-21T03:17:18;13.98;;;3.10;;
67904;SDS011;54709;43.614;1.576;2022-11-21T03:19:44;12.57;;;2.80;;
67904;SDS011;54709;43.614;1.576;2022-11-21T03:22:09;10.68;;;2.92;;
67904;SDS011;54709;43.614;1.576;2022-11-21T03:24:36;9.95;;;3.05;;
67904;SDS011;54709;43.614;1.576;2022-11-21T03:27:01;8.77;;;2.50;;
67904;SDS011;54709;43.614;1.576;2022-11-21T03:29:27;9.48;;;2.55;;
67904;SDS011;54709;43.614;1.576;2022-11-21T03:31:52;11.98;;;2.90;;
67904;SDS011;54709;43.614;1.576;2022-11-21T03:34:17;15.57;;;3.42;;
67904;SDS011;54709;43.614;1.576;2022-11-21T03:36:43;11.13;;;2.95;;
67904;SDS011;54709;43.614;1.576;2022-11-21T03:39:08;13.30;;;2.90;;
67904;SDS011;54709;43.614;1.576;2022-11-21T03:41:34;8.52;;;2.75;;
67904;SDS011;54709;43.614;1.576;2022-11-21T03:44:06;6.43;;;2.60;;
67904;SDS011;54709;43.614;1.576;2022-11-21T03:46:37;11.38;;;2.67;;
67904;SDS011;54709;43.614;1.576;2022-11-21T03:49:03;10.45;;;2.90;;
67904;SDS011;54709;43.614;1.576;2022-11-21T03:51:29;12.25;;;2.92;;
67904;SDS011;54709;43.614;1.576;2022-11-21T03:53:54;9.25;;;2.72;;
67904;SDS011;54709;43.614;1.576;2022-11-21T03:56:20;12.43;;;2.90;;
67904;SDS011;54709;43.614;1.576;2022-11-21T03:58:46;13.52;;;2.95;;
67904;SDS011;54709;43.614;1.576;2022-11-21T04:01:11;12.30;;;2.58;;
67904;SDS011;54709;43.614;1.576;2022-11-21T04:03:40;17.73;;;2.95;;
67904;SDS011;54709;43.614;1.576;2022-11-21T04:06:06;10.88;;;2.63;;
67904;SDS011;54709;43.614;1.576;2022-11-21T04:08:32;13.90;;;2.95;;
67904;SDS011;54709;43.614;1.576;2022-11-21T04:10:58;15.95;;;2.90;;
67904;SDS011;54709;43.614;1.576;2022-11-21T04:13:23;11.85;;;2.60;;
67904;SDS011;54709;43.614;1.576;2022-11-21T04:15:48;14.65;;;3.17;;
67904;SDS011;54709;43.614;1.576;2022-11-21T04:18:14;15.20;;;3.28;;
67904;SDS011;54709;43.614;1.576;2022-11-21T04:20:39;14.77;;;3.17;;
67904;SDS011;54709;43.614;1.576;2022-11-21T04:23:05;12.27;;;3.03;;
67904;SDS011;54709;43.614;1.576;2022-11-21T04:25:30;11.50;;;3.38;;
67904;SDS011;54709;43.614;1.576;2022-11-21T04:27:57;18.05;;;3.65;;
67904;SDS011;54709;43.614;1.576;2022-11-21T04:30:26;12.52;;;3.47;;
67904;SDS011;54709;43.614;1.576;2022-11-21T04:32:52;17.45;;;3.65;;
67904;SDS011;54709;43.614;1.576;2022-11-21T04:35:17;13.27;;;3.78;;
67904;SDS011;54709;43.614;1.576;2022-11-21T04:37:43;15.27;;;4.32;;
67904;SDS011;54709;43.614;1.576;2022-11-21T04:40:08;16.13;;;4.22;;
67904;SDS011;54709;43.614;1.576;2022-11-21T04:42:34;12.13;;;3.53;;
67904;SDS011;54709;43.614;1.576;2022-11-21T04:45:00;14.57;;;3.88;;
67904;SDS011;54709;43.614;1.576;2022-11-21T04:47:25;14.10;;;5.05;;
67904;SDS011;54709;43.614;1.576;2022-11-21T04:49:51;16.67;;;5.25;;
67904;SDS011;54709;43.614;1.576;2022-11-21T04:52:16;11.90;;;4.75;;
67904;SDS011;54709;43.614;1.576;2022-11-21T04:54:41;17.20;;;5.00;;
67904;SDS011;54709;43.614;1.576;2022-11-21T04:57:07;18.08;;;5.30;;
67904;SDS011;54709;43.614;1.576;2022-11-21T04:59:33;15.05;;;5.22;;
67904;SDS011;54709;43.614;1.576;2022-11-21T05:01:58;17.50;;;6.05;;
67904;SDS011;54709;43.614;1.576;2022-11-21T05:04:23;17.45;;;5.40;;
67904;SDS011;54709;43.614;1.576;2022-11-21T05:06:49;15.45;;;5.70;;
67904;SDS011;54709;43.614;1.576;2022-11-21T05:09:14;14.13;;;4.82;;
67904;SDS011;54709;43.614;1.576;2022-11-21T05:11:39;18.85;;;4.70;;
67904;SDS011;54709;43.614;1.576;2022-11-21T05:14:24;15.73;;;4.55;;
67904;SDS011;54709;43.614;1.576;2022-11-21T05:16:50;13.63;;;4.43;;
67904;SDS011;54709;43.614;1.576;2022-11-21T05:19:16;13.10;;;4.18;;
67904;SDS011;54709;43.614;1.576;2022-11-21T05:21:41;13.98;;;4.38;;
67904;SDS011;54709;43.614;1.576;2022-11-21T05:24:07;11.27;;;3.97;;
67904;SDS011;54709;43.614;1.576;2022-11-21T05:26:32;13.10;;;4.05;;
67904;SDS011;54709;43.614;1.576;2022-11-21T05:28:58;16.20;;;4.40;;
67904;SDS011;54709;43.614;1.576;2022-11-21T05:31:23;14.13;;;3.90;;
67904;SDS011;54709;43.614;1.576;2022-11-21T05:33:48;14.05;;;3.33;;
67904;SDS011;54709;43.614;1.576;2022-11-21T05:36:14;16.70;;;4.00;;
67904;SDS011;54709;43.614;1.576;2022-11-21T05:38:39;14.55;;;3.58;;
67904;SDS011;54709;43.614;1.576;2022-11-21T05:41:05;17.55;;;3.30;;
67904;SDS011;54709;43.614;1.576;2022-11-21T05:43:30;12.18;;;3.03;;
67904;SDS011;54709;43.614;1.576;2022-11-21T05:46:11;14.02;;;3.70;;
67904;SDS011;54709;43.614;1.576;2022-11-21T05:48:41;17.35;;;3.22;;
67904;SDS011;54709;43.614;1.576;2022-11-21T05:51:06;15.60;;;2.80;;
67904;SDS011;54709;43.614;1.576;2022-11-21T05:53:33;18.98;;;3.53;;
67904;SDS011;54709;43.614;1.576;2022-11-21T05:56:02;16.13;;;3.20;;
67904;SDS011;54709;43.614;1.576;2022-11-21T05:58:29;14.82;;;3.00;;
67904;SDS011;54709;43.614;1.576;2022-11-21T06:00:55;9.38;;;2.65;;
67904;SDS011;54709;43.614;1.576;2022-11-21T06:03:21;12.13;;;2.45;;
67904;SDS011;54709;43.614;1.576;2022-11-21T06:06:03;12.25;;;2.88;;
67904;SDS011;54709;43.614;1.576;2022-11-21T06:08:34;10.57;;;2.60;;
67904;SDS011;54709;43.614;1.576;2022-11-21T06:11:01;11.60;;;2.75;;
67904;SDS011;54709;43.614;1.576;2022-11-21T06:13:26;19.90;;;2.80;;
67904;SDS011;54709;43.614;1.576;2022-11-21T06:18:37;9.95;;;2.78;;
67904;SDS011;54709;43.614;1.576;2022-11-21T06:21:08;12.13;;;2.65;;
67904;SDS011;54709;43.614;1.576;2022-11-21T06:23:37;13.40;;;2.45;;
67904;SDS011;54709;43.614;1.576;2022-11-21T06:26:03;10.77;;;2.47;;
67904;SDS011;54709;43.614;1.576;2022-11-21T06:28:30;10.80;;;2.92;;
67904;SDS011;54709;43.614;1.576;2022-11-21T06:31:03;16.70;;;2.83;;
67904;SDS011;54709;43.614;1.576;2022-11-21T06:33:33;14.98;;;2.78;;
67904;SDS011;54709;43.614;1.576;2022-11-21T06:36:03;18.13;;;2.72;;
67904;SDS011;54709;43.614;1.576;2022-11-21T06:38:29;7.20;;;2.30;;
67904;SDS011;54709;43.614;1.576;2022-11-21T06:40:55;13.30;;;2.50;;
67904;SDS011;54709;43.614;1.576;2022-11-21T06:43:20;10.85;;;2.00;;
67904;SDS011;54709;43.614;1.576;2022-11-21T06:45:46;16.23;;;2.65;;
67904;SDS011;54709;43.614;1.576;2022-11-21T06:48:12;15.02;;;2.47;;
67904;SDS011;54709;43.614;1.576;2022-11-21T06:50:37;18.73;;;2.72;;
67904;SDS011;54709;43.614;1.576;2022-11-21T06:53:03;10.68;;;2.15;;
67904;SDS011;54709;43.614;1.576;2022-11-21T06:55:29;14.55;;;2.28;;
67904;SDS011;54709;43.614;1.576;2022-11-21T06:57:58;15.27;;;2.65;;
67904;SDS011;54709;43.614;1.576;2022-11-21T07:00:27;33.47;;;3.50;;
67904;SDS011;54709;43.614;1.576;2022-11-21T07:02:53;19.38;;;2.95;;
67904;SDS011;54709;43.614;1.576;2022-11-21T07:05:19;9.35;;;2.58;;
67904;SDS011;54709;43.614;1.576;2022-11-21T07:07:44;15.98;;;3.15;;
67904;SDS011;54709;43.614;1.576;2022-11-21T07:10:10;16.67;;;2.50;;
67904;SDS011;54709;43.614;1.576;2022-11-21T07:12:35;12.25;;;2.67;;
67904;SDS011;54709;43.614;1.576;2022-11-21T07:15:19;18.98;;;3.00;;
67904;SDS011;54709;43.614;1.576;2022-11-21T07:17:45;20.13;;;3.00;;
67904;SDS011;54709;43.614;1.576;2022-11-21T07:20:10;16.52;;;2.88;;
67904;SDS011;54709;43.614;1.576;2022-11-21T07:22:36;20.48;;;2.80;;
67904;SDS011;54709;43.614;1.576;2022-11-21T07:25:01;13.07;;;2.85;;
67904;SDS011;54709;43.614;1.576;2022-11-21T07:27:27;17.48;;;2.80;;
67904;SDS011;54709;43.614;1.576;2022-11-21T07:29:52;16.70;;;2.90;;
67904;SDS011;54709;43.614;1.576;2022-11-21T07:32:17;22.23;;;3.00;;
67904;SDS011;54709;43.614;1.576;2022-11-21T07:34:43;19.55;;;2.60;;
67904;SDS011;54709;43.614;1.576;2022-11-21T07:37:08;17.33;;;2.80;;
67904;SDS011;54709;43.614;1.576;2022-11-21T07:39:34;18.35;;;2.65;;
67904;SDS011;54709;43.614;1.576;2022-11-21T07:41:59;17.17;;;2.33;;
67904;SDS011;54709;43.614;1.576;2022-11-21T07:44:24;17.00;;;3.03;;
67904;SDS011;54709;43.614;1.576;2022-11-21T07:46:52;17.20;;;2.88;;
67904;SDS011;54709;43.614;1.576;2022-11-21T07:49:19;18.60;;;3.10;;
67904;SDS011;54709;43.614;1.576;2022-11-21T07:51:44;15.27;;;2.33;;
67904;SDS011;54709;43.614;1.576;2022-11-21T07:54:10;16.63;;;2.40;;
67904;SDS011;54709;43.614;1.576;2022-11-21T07:56:35;12.68;;;2.92;;
67904;SDS011;54709;43.614;1.576;2022-11-21T07:59:01;15.05;;;2.88;;
67904;SDS011;54709;43.614;1.576;2022-11-21T08:01:26;17.00;;;2.88;;
67904;SDS011;54709;43.614;1.576;2022-11-21T08:03:51;15.00;;;3.00;;
67904;SDS011;54709;43.614;1.576;2022-11-21T08:06:17;15.63;;;2.60;;
67904;SDS011;54709;43.614;1.576;2022-11-21T08:08:42;12.05;;;2.45;;
67904;SDS011;54709;43.614;1.576;2022-11-21T08:11:08;14.18;;;2.65;;
67904;SDS011;54709;43.614;1.576;2022-11-21T08:13:33;15.55;;;2.70;;
67904;SDS011;54709;43.614;1.576;2022-11-21T08:16:01;14.02;;;2.60;;
67904;SDS011;54709;43.614;1.576;2022-11-21T08:18:29;18.40;;;2.83;;
67904;SDS011;54709;43.614;1.576;2022-11-21T08:20:54;14.32;;;2.83;;
67904;SDS011;54709;43.614;1.576;2022-11-21T08:23:20;17.13;;;2.50;;
67904;SDS011;54709;43.614;1.576;2022-11-21T08:25:45;13.57;;;2.50;;
67904;SDS011;54709;43.614;1.576;2022-11-21T08:28:10;14.55;;;2.42;;
67904;SDS011;54709;43.614;1.576;2022-11-21T08:30:36;15.90;;;2.83;;
67904;SDS011;54709;43.614;1.576;2022-11-21T08:33:02;17.63;;;2.55;;
67904;SDS011;54709;43.614;1.576;2022-11-21T08:35:28;10.98;;;2.20;;
67904;SDS011;54709;43.614;1.576;2022-11-21T08:37:54;13.32;;;2.78;;
67904;SDS011;54709;43.614;1.576;2022-11-21T08:40:21;19.00;;;2.83;;
67904;SDS011;54709;43.614;1.576;2022-11-21T08:42:46;20.58;;;3.20;;
67904;SDS011;54709;43.614;1.576;2022-11-21T08:45:12;12.27;;;2.58;;
67904;SDS011;54709;43.614;1.576;2022-11-21T08:47:37;16.50;;;2.95;;
67904;SDS011;54709;43.614;1.576;2022-11-21T08:50:02;16.42;;;2.60;;
67904;SDS011;54709;43.614;1.576;2022-11-21T08:52:28;19.67;;;2.97;;
67904;SDS011;54709;43.614;1.576;2022-11-21T08:54:54;14.85;;;2.63;;
67904;SDS011;54709;43.614;1.576;2022-11-21T08:57:20;14.93;;;3.05;;
67904;SDS011;54709;43.614;1.576;2022-11-21T08:59:46;12.02;;;2.53;;
67904;SDS011;54709;43.614;1.576;2022-11-21T09:02:11;12.35;;;2.58;;
67904;SDS011;54709;43.614;1.576;2022-11-21T09:04:37;19.30;;;2.80;;
67904;SDS011;54709;43.614;1.576;2022-11-21T09:07:02;15.48;;;2.85;;
67904;SDS011;54709;43.614;1.576;2022-11-21T09:09:28;14.82;;;2.72;;
67904;SDS011;54709;43.614;1.576;2022-11-21T09:11:53;16.30;;;2.75;;
67904;SDS011;54709;43.614;1.576;2022-11-21T09:14:19;10.00;;;2.38;;
67904;SDS011;54709;43.614;1.576;2022-11-21T09:17:03;21.35;;;2.83;;
67904;SDS011;54709;43.614;1.576;2022-11-21T09:19:47;27.73;;;2.97;;
67904;SDS011;54709;43.614;1.576;2022-11-21T09:22:12;26.63;;;3.33;;
67904;SDS011;54709;43.614;1.576;2022-11-21T09:24:37;17.63;;;3.05;;
67904;SDS011;54709;43.614;1.576;2022-11-21T09:27:03;16.20;;;2.65;;
67904;SDS011;54709;43.614;1.576;2022-11-21T09:29:28;20.38;;;3.75;;
67904;SDS011;54709;43.614;1.576;2022-11-21T09:31:53;19.17;;;3.72;;
67904;SDS011;54709;43.614;1.576;2022-11-21T09:34:19;21.73;;;3.60;;
67904;SDS011;54709;43.614;1.576;2022-11-21T09:36:44;21.17;;;3.55;;
67904;SDS011;54709;43.614;1.576;2022-11-21T09:39:10;15.60;;;3.35;;
67904;SDS011;54709;43.614;1.576;2022-11-21T09:41:40;20.35;;;2.90;;
67904;SDS011;54709;43.614;1.576;2022-11-21T09:49:48;14.38;;;2.95;;
67904;SDS011;54709;43.614;1.576;2022-11-21T09:52:17;17.05;;;2.97;;
67904;SDS011;54709;43.614;1.576;2022-11-21T09:54:48;20.88;;;3.22;;
67904;SDS011;54709;43.614;1.576;2022-11-21T09:57:16;16.63;;;3.30;;
67904;SDS011;54709;43.614;1.576;2022-11-21T09:59:42;23.42;;;3.88;;
67904;SDS011;54709;43.614;1.576;2022-11-21T10:02:13;18.30;;;3.45;;
67904;SDS011;54709;43.614;1.576;2022-11-21T10:04:40;15.30;;;3.85;;
67904;SDS011;54709;43.614;1.576;2022-11-21T10:07:07;18.98;;;4.03;;
67904;SDS011;54709;43.614;1.576;2022-11-21T10:21:16;19.25;;;6.88;;
67904;SDS011;54709;43.614;1.576;2022-11-21T10:26:35;15.57;;;6.32;;
67904;SDS011;54709;43.614;1.576;2022-11-21T10:31:43;17.30;;;5.45;;
67904;SDS011;54709;43.614;1.576;2022-11-21T10:34:17;20.75;;;4.30;;
67904;SDS011;54709;43.614;1.576;2022-11-21T10:36:45;16.23;;;3.90;;
67904;SDS011;54709;43.614;1.576;2022-11-21T10:41:49;17.10;;;3.10;;
67904;SDS011;54709;43.614;1.576;2022-11-21T10:44:26;17.90;;;3.45;;
67904;SDS011;54709;43.614;1.576;2022-11-21T10:47:15;22.13;;;3.85;;
67904;SDS011;54709;43.614;1.576;2022-11-21T10:49:52;14.02;;;2.60;;
67904;SDS011;54709;43.614;1.576;2022-11-21T10:52:39;18.98;;;4.05;;
67904;SDS011;54709;43.614;1.576;2022-11-21T10:55:10;16.25;;;3.85;;
67904;SDS011;54709;43.614;1.576;2022-11-21T10:57:46;20.58;;;3.22;;
67904;SDS011;54709;43.614;1.576;2022-11-21T11:02:41;19.75;;;3.75;;
67904;SDS011;54709;43.614;1.576;2022-11-21T11:05:27;16.58;;;4.05;;
67904;SDS011;54709;43.614;1.576;2022-11-21T11:10:41;21.25;;;3.45;;
67904;SDS011;54709;43.614;1.576;2022-11-21T11:16:01;18.85;;;3.38;;
67904;SDS011;54709;43.614;1.576;2022-11-21T11:18:27;16.48;;;3.83;;
67904;SDS011;54709;43.614;1.576;2022-11-21T11:20:53;16.27;;;4.57;;
67904;SDS011;54709;43.614;1.576;2022-11-21T11:23:35;20.10;;;4.10;;
67904;SDS011;54709;43.614;1.576;2022-11-21T11:26:01;16.65;;;3.65;;
67904;SDS011;54709;43.614;1.576;2022-11-21T11:28:32;18.90;;;4.78;;
67904;SDS011;54709;43.614;1.576;2022-11-21T11:30:59;15.63;;;4.60;;
67904;SDS011;54709;43.614;1.576;2022-11-21T11:33:33;23.00;;;4.90;;
67904;SDS011;54709;43.614;1.576;2022-11-21T11:38:34;23.88;;;6.43;;
67904;SDS011;54709;43.614;1.576;2022-11-21T11:40:59;20.45;;;4.75;;
67904;SDS011;54709;43.614;1.576;2022-11-21T11:49:02;14.80;;;3.97;;
67904;SDS011;54709;43.614;1.576;2022-11-21T11:51:37;16.48;;;5.88;;
67904;SDS011;54709;43.614;1.576;2022-11-21T11:54:07;15.73;;;4.60;;
67904;SDS011;54709;43.614;1.576;2022-11-21T11:56:36;15.50;;;3.60;;
67904;SDS011;54709;43.614;1.576;2022-11-21T11:59:06;18.70;;;3.80;;
67904;SDS011;54709;43.614;1.576;2022-11-21T12:06:49;18.63;;;3.55;;
67904;SDS011;54709;43.614;1.576;2022-11-21T12:09:27;18.98;;;3.65;;
67904;SDS011;54709;43.614;1.576;2022-11-21T12:12:04;12.15;;;2.95;;
67904;SDS011;54709;43.614;1.576;2022-11-21T12:23:27;12.30;;;2.80;;
67904;SDS011;54709;43.614;1.576;2022-11-21T12:37:38;11.77;;;3.33;;
67904;SDS011;54709;43.614;1.576;2022-11-21T12:57:08;11.98;;;3.33;;
67904;SDS011;54709;43.614;1.576;2022-11-21T12:59:50;9.98;;;3.03;;
67904;SDS011;54709;43.614;1.576;2022-11-21T13:02:20;12.15;;;3.05;;
67904;SDS011;54709;43.614;1.576;2022-11-21T13:04:51;10.30;;;2.95;;
67904;SDS011;54709;43.614;1.576;2022-11-21T13:07:19;14.38;;;3.30;;
67904;SDS011;54709;43.614;1.576;2022-11-21T13:09:46;16.05;;;3.10;;
67904;SDS011;54709;43.614;1.576;2022-11-21T13:12:15;15.85;;;3.88;;
67904;SDS011;54709;43.614;1.576;2022-11-21T13:15:38;15.27;;;4.30;;
67904;SDS011;54709;43.614;1.576;2022-11-21T13:17:58;13.13;;;4.20;;
67904;SDS011;54709;43.614;1.576;2022-11-21T13:20:31;18.13;;;5.00;;
67904;SDS011;54709;43.614;1.576;2022-11-21T13:23:01;13.10;;;4.13;;
67904;SDS011;54709;43.614;1.576;2022-11-21T13:30:46;18.13;;;5.15;;
67904;SDS011;54709;43.614;1.576;2022-11-21T13:36:03;15.13;;;4.63;;
67904;SDS011;54709;43.614;1.576;2022-11-21T13:38:30;11.35;;;4.40;;
67904;SDS011;54709;43.614;1.576;2022-11-21T13:47:09;18.10;;;4.95;;
67904;SDS011;54709;43.614;1.576;2022-11-21T13:55:55;17.70;;;4.85;;
67904;SDS011;54709;43.614;1.576;2022-11-21T14:06:29;18.30;;;4.75;;
67904;SDS011;54709;43.614;1.576;2022-11-21T14:11:43;18.67;;;10.38;;
67904;SDS011;54709;43.614;1.576;2022-11-21T14:14:27;19.42;;;7.80;;
67904;SDS011;54709;43.614;1.576;2022-11-21T14:20:26;13.13;;;3.75;;
67904;SDS011;54709;43.614;1.576;2022-11-21T14:28:04;9.52;;;2.72;;
67904;SDS011;54709;43.614;1.576;2022-11-21T14:38:39;13.32;;;3.50;;
67904;SDS011;54709;43.614;1.576;2022-11-21T14:48:54;10.48;;;2.80;;
67904;SDS011;54709;43.614;1.576;2022-11-21T14:51:22;12.00;;;2.83;;
67904;SDS011;54709;43.614;1.576;2022-11-21T14:53:48;9.45;;;2.65;;
67904;SDS011;54709;43.614;1.576;2022-11-21T14:58:52;10.30;;;3.08;;
67904;SDS011;54709;43.614;1.576;2022-11-21T15:01:19;13.45;;;2.63;;
67904;SDS011;54709;43.614;1.576;2022-11-21T15:03:56;12.35;;;2.97;;
67904;SDS011;54709;43.614;1.576;2022-11-21T15:06:23;13.70;;;3.25;;
67904;SDS011;54709;43.614;1.576;2022-11-21T15:08:50;15.55;;;3.35;;
67904;SDS011;54709;43.614;1.576;2022-11-21T15:11:16;13.85;;;3.05;;
67904;SDS011;54709;43.614;1.576;2022-11-21T15:13:42;9.13;;;3.38;;
67904;SDS011;54709;43.614;1.576;2022-11-21T15:16:09;10.38;;;3.13;;
67904;SDS011;54709;43.614;1.576;2022-11-21T15:18:34;18.50;;;4.00;;
67904;SDS011;54709;43.614;1.576;2022-11-21T15:21:02;10.15;;;2.70;;
67904;SDS011;54709;43.614;1.576;2022-11-21T15:23:32;7.40;;;2.17;;
67904;SDS011;54709;43.614;1.576;2022-11-21T15:25:59;10.80;;;2.53;;
67904;SDS011;54709;43.614;1.576;2022-11-21T15:28:25;5.82;;;1.98;;
67904;SDS011;54709;43.614;1.576;2022-11-21T15:36:26;10.32;;;3.53;;
67904;SDS011;54709;43.614;1.576;2022-11-21T15:41:31;11.63;;;4.60;;
67904;SDS011;54709;43.614;1.576;2022-11-21T15:46:29;8.70;;;3.30;;
67904;SDS011;54709;43.614;1.576;2022-11-21T15:49:05;15.55;;;3.35;;
67904;SDS011;54709;43.614;1.576;2022-11-21T15:51:34;9.00;;;3.45;;
67904;SDS011;54709;43.614;1.576;2022-11-21T15:54:01;12.20;;;4.77;;
67904;SDS011;54709;43.614;1.576;2022-11-21T15:56:28;13.70;;;4.20;;
67904;SDS011;54709;43.614;1.576;2022-11-21T15:58:53;13.00;;;4.75;;
67904;SDS011;54709;43.614;1.576;2022-11-21T16:01:19;10.48;;;3.90;;
67904;SDS011;54709;43.614;1.576;2022-11-21T16:03:50;9.90;;;4.45;;
67904;SDS011;54709;43.614;1.576;2022-11-21T16:06:17;15.40;;;4.05;;
67904;SDS011;54709;43.614;1.576;2022-11-21T16:08:43;8.95;;;3.80;;
67904;SDS011;54709;43.614;1.576;2022-11-21T16:11:50;11.75;;;3.80;;
67904;SDS011;54709;43.614;1.576;2022-11-21T16:13:58;15.13;;;4.68;;
67904;SDS011;54709;43.614;1.576;2022-11-21T16:16:26;23.30;;;4.68;;
67904;SDS011;54709;43.614;1.576;2022-11-21T16:18:54;16.95;;;4.70;;
67904;SDS011;54709;43.614;1.576;2022-11-21T16:21:19;15.45;;;3.92;;
67904;SDS011;54709;43.614;1.576;2022-11-21T16:23:45;17.85;;;4.60;;
67904;SDS011;54709;43.614;1.576;2022-11-21T16:26:10;20.40;;;4.88;;
67904;SDS011;54709;43.614;1.576;2022-11-21T16:28:36;21.35;;;4.15;;
67904;SDS011;54709;43.614;1.576;2022-11-21T16:31:02;27.70;;;4.50;;
67904;SDS011;54709;43.614;1.576;2022-11-21T16:33:28;23.88;;;4.15;;
67904;SDS011;54709;43.614;1.576;2022-11-21T16:35:54;29.77;;;5.05;;
67904;SDS011;54709;43.614;1.576;2022-11-21T16:38:24;30.90;;;4.65;;
67904;SDS011;54709;43.614;1.576;2022-11-21T16:40:52;24.23;;;4.45;;
67904;SDS011;54709;43.614;1.576;2022-11-21T16:43:18;29.73;;;4.53;;
67904;SDS011;54709;43.614;1.576;2022-11-21T16:45:44;21.75;;;4.10;;
67904;SDS011;54709;43.614;1.576;2022-11-21T16:48:09;26.58;;;3.75;;
67904;SDS011;54709;43.614;1.576;2022-11-21T16:50:34;25.10;;;3.92;;
67904;SDS011;54709;43.614;1.576;2022-11-21T16:53:00;22.80;;;5.03;;
67904;SDS011;54709;43.614;1.576;2022-11-21T16:55:25;29.60;;;6.15;;
67904;SDS011;54709;43.614;1.576;2022-11-21T16:57:51;33.45;;;10.68;;
67904;SDS011;54709;43.614;1.576;2022-11-21T17:00:17;42.35;;;11.57;;
67904;SDS011;54709;43.614;1.576;2022-11-21T17:02:43;33.25;;;8.82;;
67904;SDS011;54709;43.614;1.576;2022-11-21T17:05:08;35.20;;;7.93;;
67904;SDS011;54709;43.614;1.576;2022-11-21T17:07:34;28.30;;;7.18;;
67904;SDS011;54709;43.614;1.576;2022-11-21T17:09:59;39.08;;;8.15;;
67904;SDS011;54709;43.614;1.576;2022-11-21T17:12:25;33.25;;;8.15;;
67904;SDS011;54709;43.614;1.576;2022-11-21T17:14:50;35.50;;;7.55;;
67904;SDS011;54709;43.614;1.576;2022-11-21T17:17:16;24.67;;;6.63;;
67904;SDS011;54709;43.614;1.576;2022-11-21T17:19:41;24.85;;;5.28;;